If you wish to contribute or participate in the discussions about articles you are invited to join SKYbrary as a registered user

 Actions

Manokotak Airport

From SKYbrary Wiki

PAMB
Airport
ICAO: PAMB
Summary
Name Manokotak Airport
Region North America
Territory Alaska US.gif
Location Manokotak
Serving
Coordinates 58° 59' 20.27" N, 159° 2' 59.90" W
Runways
Designator Length Width Surface ROPS
3/21 1006 m3,300.525 ft
23 m75.459 ft
GRVL-G /


METAR
Observation PAMB 210756Z AUTO 04011KT 1/2SM -RA FG OVC002 01/00 A2959 RMK AO2 RAB31 SLP023 P0000 T00060000 FZRANO $
Station MANOKOTAK
Date/Time 21 October 2019 07:56:00
Wind direction 40°
Wind speed 11 kts
Lowest cloud amount overcast
Temperature 0.6°C
Dew point 0°C
Humidity 95%
QNH hPa
Weather condition light

BS
Tag(s) Bird Strike
BS
Tag(s) Non Avian Wildlife Hazards to Aircraft
CFIT
Tag(s) Altimeter Temperature Error Correction

Manokotak Airport

ICAO: PAMB IATA: KMO

Description

Regional airport serving Manokotak, Alaska.

Climatology

Subarctic climate (Köppen climate classification Dfc) - long, usually very cold winters, and short, cool to mild summers.

Maps

Terrain

Loading map...

Airport Layout

Loading map...


Accidents & Serious Incidents at or in vicinity of PAMB

None on SKYbrary